sensor_id;sensor_type;location;lat;lon;timestamp;pressure;altitude;pressure_sealevel;temperature;humidity
61900;BME280;47853;55.890;37.664;2023-07-24T00:11:39;98556.88;;;18.88;100.00
61900;BME280;47853;55.890;37.664;2023-07-24T00:14:46;98561.47;;;19.21;100.00
61900;BME280;47853;55.890;37.664;2023-07-24T00:20:30;98627.38;;;19.70;100.00
61900;BME280;47853;55.890;37.664;2023-07-24T00:23:24;98566.84;;;19.73;100.00
61900;BME280;47853;55.890;37.664;2023-07-24T00:25:49;98583.81;;;20.12;100.00
61900;BME280;47853;55.890;37.664;2023-07-24T00:28:33;98625.59;;;19.93;100.00
61900;BME280;47853;55.890;37.664;2023-07-24T00:31:01;98598.69;;;19.59;100.00
61900;BME280;47853;55.890;37.664;2023-07-24T00:33:32;98568.91;;;19.31;100.00
61900;BME280;47853;55.890;37.664;2023-07-24T00:35:58;98563.84;;;19.18;100.00
61900;BME280;47853;55.890;37.664;2023-07-24T00:40:51;98619.94;;;19.77;100.00
61900;BME280;47853;55.890;37.664;2023-07-24T00:43:17;98597.38;;;19.10;100.00
61900;BME280;47853;55.890;37.664;2023-07-24T00:45:45;98579.50;;;19.21;100.00
61900;BME280;47853;55.890;37.664;2023-07-24T00:48:18;98550.88;;;19.15;100.00
61900;BME280;47853;55.890;37.664;2023-07-24T00:50:44;98607.13;;;18.99;100.00
61900;BME280;47853;55.890;37.664;2023-07-24T00:53:11;98600.31;;;19.25;100.00
61900;BME280;47853;55.890;37.664;2023-07-24T00:55:38;98591.50;;;19.30;100.00
61900;BME280;47853;55.890;37.664;2023-07-24T00:58:06;98583.50;;;19.35;100.00
61900;BME280;47853;55.890;37.664;2023-07-24T01:00:32;98553.06;;;19.35;100.00
61900;BME280;47853;55.890;37.664;2023-07-24T01:02:59;98582.31;;;18.97;100.00
61900;BME280;47853;55.890;37.664;2023-07-24T01:05:25;98576.50;;;19.51;100.00
61900;BME280;47853;55.890;37.664;2023-07-24T01:07:51;98589.94;;;19.00;100.00
61900;BME280;47853;55.890;37.664;2023-07-24T01:10:17;98583.44;;;19.47;100.00
61900;BME280;47853;55.890;37.664;2023-07-24T01:12:54;98611.00;;;19.71;100.00
61900;BME280;47853;55.890;37.664;2023-07-24T01:15:36;98549.63;;;19.56;100.00
61900;BME280;47853;55.890;37.664;2023-07-24T01:18:08;98548.09;;;19.09;100.00
61900;BME280;47853;55.890;37.664;2023-07-24T01:20:37;98614.69;;;19.88;100.00
61900;BME280;47853;55.890;37.664;2023-07-24T01:26:06;98549.69;;;18.93;100.00
61900;BME280;47853;55.890;37.664;2023-07-24T01:28:32;98587.81;;;19.02;100.00
61900;BME280;47853;55.890;37.664;2023-07-24T01:30:58;98550.66;;;18.87;100.00
61900;BME280;47853;55.890;37.664;2023-07-24T01:33:24;98577.75;;;18.39;100.00
61900;BME280;47853;55.890;37.664;2023-07-24T01:35:57;98578.22;;;18.94;100.00
61900;BME280;47853;55.890;37.664;2023-07-24T01:38:26;98561.47;;;18.58;100.00
61900;BME280;47853;55.890;37.664;2023-07-24T01:40:55;98589.75;;;19.92;100.00
61900;BME280;47853;55.890;37.664;2023-07-24T01:43:24;98591.97;;;19.44;100.00
61900;BME280;47853;55.890;37.664;2023-07-24T01:45:50;98517.97;;;18.95;100.00
61900;BME280;47853;55.890;37.664;2023-07-24T01:48:17;98542.88;;;18.57;100.00
61900;BME280;47853;55.890;37.664;2023-07-24T01:50:43;98543.59;;;18.52;100.00
61900;BME280;47853;55.890;37.664;2023-07-24T01:53:08;98587.53;;;18.87;100.00
61900;BME280;47853;55.890;37.664;2023-07-24T01:55:33;98581.13;;;18.76;100.00
61900;BME280;47853;55.890;37.664;2023-07-24T01:57:59;98601.53;;;18.89;100.00
61900;BME280;47853;55.890;37.664;2023-07-24T02:00:24;98588.13;;;18.48;100.00
61900;BME280;47853;55.890;37.664;2023-07-24T02:02:49;98555.34;;;18.63;100.00
61900;BME280;47853;55.890;37.664;2023-07-24T02:05:15;98582.50;;;19.07;100.00
61900;BME280;47853;55.890;37.664;2023-07-24T02:07:40;98588.63;;;18.74;100.00
61900;BME280;47853;55.890;37.664;2023-07-24T02:10:06;98578.84;;;18.67;100.00
61900;BME280;47853;55.890;37.664;2023-07-24T02:12:31;98552.44;;;18.64;100.00
61900;BME280;47853;55.890;37.664;2023-07-24T02:14:57;98552.38;;;18.47;100.00
61900;BME280;47853;55.890;37.664;2023-07-24T02:17:23;98578.44;;;19.05;100.00
61900;BME280;47853;55.890;37.664;2023-07-24T02:19:48;98548.66;;;19.11;100.00
61900;BME280;47853;55.890;37.664;2023-07-24T02:22:15;98569.97;;;19.30;100.00
61900;BME280;47853;55.890;37.664;2023-07-24T02:24:40;98572.72;;;19.01;100.00
61900;BME280;47853;55.890;37.664;2023-07-24T02:27:06;98591.31;;;19.20;100.00
61900;BME280;47853;55.890;37.664;2023-07-24T02:29:31;98544.91;;;19.30;100.00
61900;BME280;47853;55.890;37.664;2023-07-24T02:31:57;98548.28;;;18.74;100.00
61900;BME280;47853;55.890;37.664;2023-07-24T02:34:23;98549.91;;;19.04;100.00
61900;BME280;47853;55.890;37.664;2023-07-24T02:36:48;98609.25;;;18.85;100.00
61900;BME280;47853;55.890;37.664;2023-07-24T02:48:33;98599.81;;;18.82;100.00
61900;BME280;47853;55.890;37.664;2023-07-24T02:51:37;98608.13;;;19.61;100.00
61900;BME280;47853;55.890;37.664;2023-07-24T02:57:42;98548.81;;;19.22;100.00
61900;BME280;47853;55.890;37.664;2023-07-24T03:06:03;98590.94;;;19.11;100.00
61900;BME280;47853;55.890;37.664;2023-07-24T03:08:46;98587.13;;;18.37;100.00
61900;BME280;47853;55.890;37.664;2023-07-24T03:11:20;98607.41;;;19.66;100.00
61900;BME280;47853;55.890;37.664;2023-07-24T03:16:58;98615.94;;;19.80;100.00
61900;BME280;47853;55.890;37.664;2023-07-24T03:19:55;98615.81;;;19.52;100.00
61900;BME280;47853;55.890;37.664;2023-07-24T03:22:58;98551.00;;;18.91;100.00
61900;BME280;47853;55.890;37.664;2023-07-24T03:25:26;98573.53;;;19.70;100.00
61900;BME280;47853;55.890;37.664;2023-07-24T03:27:52;98599.97;;;19.39;100.00
61900;BME280;47853;55.890;37.664;2023-07-24T03:33:49;98605.97;;;19.80;100.00
61900;BME280;47853;55.890;37.664;2023-07-24T03:36:14;98630.88;;;20.49;100.00
61900;BME280;47853;55.890;37.664;2023-07-24T03:38:49;98549.00;;;19.32;100.00
61900;BME280;47853;55.890;37.664;2023-07-24T03:41:17;98616.59;;;19.87;100.00
61900;BME280;47853;55.890;37.664;2023-07-24T03:44:11;98581.53;;;19.13;100.00
61900;BME280;47853;55.890;37.664;2023-07-24T03:46:45;98607.59;;;19.81;100.00
61900;BME280;47853;55.890;37.664;2023-07-24T03:52:14;98604.94;;;20.43;100.00
61900;BME280;47853;55.890;37.664;2023-07-24T03:54:55;98579.59;;;19.26;100.00
61900;BME280;47853;55.890;37.664;2023-07-24T03:57:31;98607.94;;;20.02;100.00
61900;BME280;47853;55.890;37.664;2023-07-24T04:00:02;98623.00;;;20.87;96.33
61900;BME280;47853;55.890;37.664;2023-07-24T04:02:31;98577.53;;;20.07;100.00
61900;BME280;47853;55.890;37.664;2023-07-24T04:04:59;98578.81;;;20.21;97.86
61900;BME280;47853;55.890;37.664;2023-07-24T04:07:35;98585.44;;;19.91;100.00
61900;BME280;47853;55.890;37.664;2023-07-24T04:10:00;98624.75;;;20.54;96.40
61900;BME280;47853;55.890;37.664;2023-07-24T04:12:31;98604.69;;;21.22;92.71
61900;BME280;47853;55.890;37.664;2023-07-24T04:14:59;98609.31;;;20.99;90.70
61900;BME280;47853;55.890;37.664;2023-07-24T04:17:27;98597.06;;;20.86;95.59
61900;BME280;47853;55.890;37.664;2023-07-24T04:19:56;98595.53;;;21.28;89.88
61900;BME280;47853;55.890;37.664;2023-07-24T04:22:23;98605.31;;;21.34;91.96
61900;BME280;47853;55.890;37.664;2023-07-24T04:24:54;98593.84;;;19.95;99.18
61900;BME280;47853;55.890;37.664;2023-07-24T04:27:27;98607.97;;;19.68;100.00
61900;BME280;47853;55.890;37.664;2023-07-24T04:30:22;98638.97;;;20.49;100.00
61900;BME280;47853;55.890;37.664;2023-07-24T04:42:31;98620.09;;;20.05;100.00
61900;BME280;47853;55.890;37.664;2023-07-24T04:45:18;98632.00;;;20.09;100.00
61900;BME280;47853;55.890;37.664;2023-07-24T04:54:26;98578.34;;;21.39;92.13
61900;BME280;47853;55.890;37.664;2023-07-24T04:57:19;98543.72;;;21.31;89.12
61900;BME280;47853;55.890;37.664;2023-07-24T05:03:03;98584.16;;;20.66;93.20
61900;BME280;47853;55.890;37.664;2023-07-24T05:05:32;98549.78;;;22.60;80.41
61900;BME280;47853;55.890;37.664;2023-07-24T05:07:59;98612.69;;;21.82;86.83
61900;BME280;47853;55.890;37.664;2023-07-24T05:10:42;98607.31;;;22.40;80.48
61900;BME280;47853;55.890;37.664;2023-07-24T05:16:11;98557.03;;;21.81;82.91
61900;BME280;47853;55.890;37.664;2023-07-24T05:18:36;98610.38;;;22.59;80.85
61900;BME280;47853;55.890;37.664;2023-07-24T05:21:07;98556.81;;;21.87;84.05
61900;BME280;47853;55.890;37.664;2023-07-24T05:23:32;98561.31;;;22.30;77.60
61900;BME280;47853;55.890;37.664;2023-07-24T05:26:01;98591.09;;;22.40;80.30
61900;BME280;47853;55.890;37.664;2023-07-24T05:28:28;98583.16;;;22.18;79.72
61900;BME280;47853;55.890;37.664;2023-07-24T05:31:05;98567.09;;;20.60;90.09
61900;BME280;47853;55.890;37.664;2023-07-24T05:33:31;98572.38;;;22.28;82.18
61900;BME280;47853;55.890;37.664;2023-07-24T05:36:00;98559.16;;;21.73;84.38
61900;BME280;47853;55.890;37.664;2023-07-24T05:38:28;98549.38;;;22.15;79.82
61900;BME280;47853;55.890;37.664;2023-07-24T05:41:00;98558.59;;;22.30;78.83
61900;BME280;47853;55.890;37.664;2023-07-24T05:43:29;98554.81;;;21.67;79.51
61900;BME280;47853;55.890;37.664;2023-07-24T05:46:00;98548.44;;;21.46;86.66
61900;BME280;47853;55.890;37.664;2023-07-24T05:48:34;98567.69;;;21.60;80.87
61900;BME280;47853;55.890;37.664;2023-07-24T05:50:59;98559.41;;;21.67;81.94
61900;BME280;47853;55.890;37.664;2023-07-24T05:53:25;98606.94;;;21.35;84.35
61900;BME280;47853;55.890;37.664;2023-07-24T05:55:58;98550.41;;;21.61;85.54
61900;BME280;47853;55.890;37.664;2023-07-24T05:58:23;98562.53;;;22.70;76.96
61900;BME280;47853;55.890;37.664;2023-07-24T06:01:01;98608.22;;;22.67;74.58
61900;BME280;47853;55.890;37.664;2023-07-24T06:03:47;98569.28;;;21.18;81.27
61900;BME280;47853;55.890;37.664;2023-07-24T06:09:27;98615.44;;;22.40;76.89
61900;BME280;47853;55.890;37.664;2023-07-24T06:11:59;98579.38;;;22.19;75.69
61900;BME280;47853;55.890;37.664;2023-07-24T06:14:27;98556.56;;;21.89;74.16
61900;BME280;47853;55.890;37.664;2023-07-24T06:16:55;98600.72;;;22.10;76.82
61900;BME280;47853;55.890;37.664;2023-07-24T06:19:20;98545.63;;;20.98;82.71
61900;BME280;47853;55.890;37.664;2023-07-24T06:21:51;98579.63;;;20.71;86.41
61900;BME280;47853;55.890;37.664;2023-07-24T06:24:26;98614.19;;;22.05;80.85
61900;BME280;47853;55.890;37.664;2023-07-24T06:26:52;98619.59;;;21.29;80.64
61900;BME280;47853;55.890;37.664;2023-07-24T06:29:17;98567.91;;;21.15;83.34
61900;BME280;47853;55.890;37.664;2023-07-24T06:44:42;98592.84;;;20.95;88.44
61900;BME280;47853;55.890;37.664;2023-07-24T06:47:07;98584.47;;;20.97;91.34
61900;BME280;47853;55.890;37.664;2023-07-24T06:49:33;98605.78;;;20.93;93.83
61900;BME280;47853;55.890;37.664;2023-07-24T06:51:58;98573.66;;;20.42;92.73
61900;BME280;47853;55.890;37.664;2023-07-24T07:42:19;98621.06;;;19.98;100.00
61900;BME280;47853;55.890;37.664;2023-07-24T07:44:48;98563.31;;;19.72;100.00
61900;BME280;47853;55.890;37.664;2023-07-24T07:47:33;98573.38;;;20.66;88.99
61900;BME280;47853;55.890;37.664;2023-07-24T07:50:20;98619.00;;;21.22;86.94
61900;BME280;47853;55.890;37.664;2023-07-24T07:59:34;98610.06;;;20.67;87.94
61900;BME280;47853;55.890;37.664;2023-07-24T08:05:01;98572.34;;;20.22;96.40
61900;BME280;47853;55.890;37.664;2023-07-24T08:07:52;98621.22;;;20.53;92.75
61900;BME280;47853;55.890;37.664;2023-07-24T08:10:18;98584.16;;;20.66;91.33
61900;BME280;47853;55.890;37.664;2023-07-24T08:12:43;98568.91;;;21.04;86.87
61900;BME280;47853;55.890;37.664;2023-07-24T08:15:09;98592.78;;;20.40;93.12
61900;BME280;47853;55.890;37.664;2023-07-24T08:17:35;98545.53;;;19.71;99.75
61900;BME280;47853;55.890;37.664;2023-07-24T08:20:01;98560.38;;;20.85;98.58
61900;BME280;47853;55.890;37.664;2023-07-24T08:22:26;98592.13;;;20.78;96.32
61900;BME280;47853;55.890;37.664;2023-07-24T08:24:51;98599.84;;;21.62;93.33
61900;BME280;47853;55.890;37.664;2023-07-24T08:27:17;98591.03;;;22.25;90.91
61900;BME280;47853;55.890;37.664;2023-07-24T08:29:42;98585.97;;;22.39;91.80
61900;BME280;47853;55.890;37.664;2023-07-24T08:32:08;98588.72;;;21.91;90.08
61900;BME280;47853;55.890;37.664;2023-07-24T08:34:33;98595.81;;;22.07;91.56
61900;BME280;47853;55.890;37.664;2023-07-24T08:36:58;98599.88;;;20.74;100.00
61900;BME280;47853;55.890;37.664;2023-07-24T08:39:24;98598.69;;;21.52;100.00
61900;BME280;47853;55.890;37.664;2023-07-24T08:41:49;98604.13;;;21.20;100.00
61900;BME280;47853;55.890;37.664;2023-07-24T08:44:15;98606.25;;;20.63;100.00
61900;BME280;47853;55.890;37.664;2023-07-24T08:46:41;98594.81;;;21.38;100.00
61900;BME280;47853;55.890;37.664;2023-07-24T08:49:14;98611.94;;;19.99;100.00
61900;BME280;47853;55.890;37.664;2023-07-24T08:51:44;98592.63;;;19.68;100.00
61900;BME280;47853;55.890;37.664;2023-07-24T08:54:10;98596.09;;;19.86;100.00
61900;BME280;47853;55.890;37.664;2023-07-24T08:56:37;98594.84;;;20.55;100.00
61900;BME280;47853;55.890;37.664;2023-07-24T08:59:02;98613.47;;;20.12;100.00
61900;BME280;47853;55.890;37.664;2023-07-24T09:01:28;98590.50;;;20.10;100.00
61900;BME280;47853;55.890;37.664;2023-07-24T09:03:53;98598.44;;;20.66;100.00
61900;BME280;47853;55.890;37.664;2023-07-24T09:06:18;98596.03;;;20.20;100.00
61900;BME280;47853;55.890;37.664;2023-07-24T09:08:44;98594.00;;;21.37;100.00
61900;BME280;47853;55.890;37.664;2023-07-24T09:11:10;98589.41;;;20.78;100.00
61900;BME280;47853;55.890;37.664;2023-07-24T09:13:41;98593.28;;;20.37;100.00
61900;BME280;47853;55.890;37.664;2023-07-24T09:16:06;98585.81;;;21.27;100.00
61900;BME280;47853;55.890;37.664;2023-07-24T09:18:42;98591.22;;;21.27;100.00
61900;BME280;47853;55.890;37.664;2023-07-24T09:21:09;98581.53;;;22.17;100.00
61900;BME280;47853;55.890;37.664;2023-07-24T09:23:34;98575.34;;;20.76;100.00
61900;BME280;47853;55.890;37.664;2023-07-24T09:26:05;98572.56;;;20.93;100.00
61900;BME280;47853;55.890;37.664;2023-07-24T09:28:30;98560.63;;;20.61;100.00
61900;BME280;47853;55.890;37.664;2023-07-24T09:30:57;98564.75;;;22.15;100.00
61900;BME280;47853;55.890;37.664;2023-07-24T09:33:34;98551.03;;;22.32;100.00
61900;BME280;47853;55.890;37.664;2023-07-24T09:36:01;98563.81;;;22.47;100.00
61900;BME280;47853;55.890;37.664;2023-07-24T09:38:26;98558.44;;;22.68;100.00
61900;BME280;47853;55.890;37.664;2023-07-24T09:40:53;98551.25;;;22.20;100.00
61900;BME280;47853;55.890;37.664;2023-07-24T09:43:21;98542.78;;;22.80;100.00
61900;BME280;47853;55.890;37.664;2023-07-24T09:45:48;98553.88;;;21.94;100.00
61900;BME280;47853;55.890;37.664;2023-07-24T09:48:15;98539.28;;;21.95;100.00
61900;BME280;47853;55.890;37.664;2023-07-24T09:50:42;98527.34;;;21.43;100.00
61900;BME280;47853;55.890;37.664;2023-07-24T09:55:53;98526.50;;;21.37;100.00
61900;BME280;47853;55.890;37.664;2023-07-24T09:58:21;98520.31;;;21.42;100.00
61900;BME280;47853;55.890;37.664;2023-07-24T10:00:48;98524.78;;;21.64;100.00
61900;BME280;47853;55.890;37.664;2023-07-24T10:03:14;98518.91;;;21.34;100.00
61900;BME280;47853;55.890;37.664;2023-07-24T10:05:41;98503.78;;;21.71;100.00
61900;BME280;47853;55.890;37.664;2023-07-24T10:08:06;98512.97;;;21.37;100.00
61900;BME280;47853;55.890;37.664;2023-07-24T10:10:32;98511.28;;;21.26;100.00
61900;BME280;47853;55.890;37.664;2023-07-24T10:12:58;98509.19;;;20.68;100.00
61900;BME280;47853;55.890;37.664;2023-07-24T10:15:24;98495.50;;;21.93;100.00
61900;BME280;47853;55.890;37.664;2023-07-24T10:18:01;98499.75;;;21.36;100.00
61900;BME280;47853;55.890;37.664;2023-07-24T10:20:40;98491.63;;;20.65;100.00
61900;BME280;47853;55.890;37.664;2023-07-24T10:23:08;98487.38;;;19.53;100.00
61900;BME280;47853;55.890;37.664;2023-07-24T10:25:35;98486.28;;;20.16;100.00
61900;BME280;47853;55.890;37.664;2023-07-24T10:28:05;98471.69;;;20.11;100.00
61900;BME280;47853;55.890;37.664;2023-07-24T10:30:31;98493.03;;;19.51;100.00
61900;BME280;47853;55.890;37.664;2023-07-24T10:33:09;98490.84;;;19.48;100.00
61900;BME280;47853;55.890;37.664;2023-07-24T10:35:46;98483.03;;;19.12;100.00
61900;BME280;47853;55.890;37.664;2023-07-24T10:38:13;98508.19;;;18.72;100.00
61900;BME280;47853;55.890;37.664;2023-07-24T10:40:41;98467.13;;;18.31;100.00
61900;BME280;47853;55.890;37.664;2023-07-24T10:43:13;98488.94;;;18.46;100.00
61900;BME280;47853;55.890;37.664;2023-07-24T10:45:53;98483.44;;;19.04;100.00
61900;BME280;47853;55.890;37.664;2023-07-24T10:48:20;98485.22;;;19.94;100.00
61900;BME280;47853;55.890;37.664;2023-07-24T10:51:39;98469.34;;;19.93;100.00
61900;BME280;47853;55.890;37.664;2023-07-24T10:56:57;98477.56;;;19.07;100.00
61900;BME280;47853;55.890;37.664;2023-07-24T10:59:23;98455.88;;;18.97;100.00
61900;BME280;47853;55.890;37.664;2023-07-24T11:01:48;98469.31;;;18.97;100.00
61900;BME280;47853;55.890;37.664;2023-07-24T11:04:16;98476.78;;;18.44;100.00
61900;BME280;47853;55.890;37.664;2023-07-24T11:06:42;98463.84;;;18.58;100.00
61900;BME280;47853;55.890;37.664;2023-07-24T11:09:07;98453.25;;;18.68;100.00
61900;BME280;47853;55.890;37.664;2023-07-24T11:11:34;98468.91;;;18.88;100.00
61900;BME280;47853;55.890;37.664;2023-07-24T11:14:03;98445.13;;;18.80;100.00
61900;BME280;47853;55.890;37.664;2023-07-24T11:16:29;98440.28;;;19.33;100.00
61900;BME280;47853;55.890;37.664;2023-07-24T11:18:54;98456.78;;;18.86;100.00
61900;BME280;47853;55.890;37.664;2023-07-24T11:21:23;98433.34;;;19.37;100.00
61900;BME280;47853;55.890;37.664;2023-07-24T11:23:53;98449.19;;;19.56;100.00
61900;BME280;47853;55.890;37.664;2023-07-24T11:26:23;98432.31;;;19.21;100.00
61900;BME280;47853;55.890;37.664;2023-07-24T11:28:50;98443.34;;;19.86;100.00
61900;BME280;47853;55.890;37.664;2023-07-24T11:31:16;98429.41;;;18.89;100.00
61900;BME280;47853;55.890;37.664;2023-07-24T11:33:43;98408.78;;;19.56;100.00
61900;BME280;47853;55.890;37.664;2023-07-24T11:36:09;98424.78;;;19.63;100.00
61900;BME280;47853;55.890;37.664;2023-07-24T11:38:40;98383.25;;;18.80;100.00
61900;BME280;47853;55.890;37.664;2023-07-24T11:44:23;98384.94;;;19.20;100.00
61900;BME280;47853;55.890;37.664;2023-07-24T11:46:49;98443.72;;;18.77;100.00
61900;BME280;47853;55.890;37.664;2023-07-24T11:49:23;98429.44;;;19.28;100.00
61900;BME280;47853;55.890;37.664;2023-07-24T11:51:58;98426.22;;;19.70;100.00
61900;BME280;47853;55.890;37.664;2023-07-24T11:54:24;98418.06;;;18.87;100.00
61900;BME280;47853;55.890;37.664;2023-07-24T11:56:57;98400.94;;;19.10;100.00
61900;BME280;47853;55.890;37.664;2023-07-24T11:59:24;98390.84;;;18.83;100.00
61900;BME280;47853;55.890;37.664;2023-07-24T12:01:49;98419.22;;;19.08;100.00
61900;BME280;47853;55.890;37.664;2023-07-24T12:04:15;98388.88;;;19.35;100.00
61900;BME280;47853;55.890;37.664;2023-07-24T12:06:44;98386.00;;;19.41;100.00
61900;BME280;47853;55.890;37.664;2023-07-24T12:09:18;98378.16;;;19.62;100.00
61900;BME280;47853;55.890;37.664;2023-07-24T12:11:44;98348.88;;;19.44;100.00
61900;BME280;47853;55.890;37.664;2023-07-24T12:14:09;98337.38;;;19.48;100.00
61900;BME280;47853;55.890;37.664;2023-07-24T12:16:36;98361.78;;;19.64;100.00
61900;BME280;47853;55.890;37.664;2023-07-24T12:19:01;98340.38;;;19.30;100.00
61900;BME280;47853;55.890;37.664;2023-07-24T12:21:29;98405.19;;;19.45;100.00
61900;BME280;47853;55.890;37.664;2023-07-24T12:23:57;98391.06;;;19.16;100.00
61900;BME280;47853;55.890;37.664;2023-07-24T12:26:30;98343.84;;;19.75;100.00
61900;BME280;47853;55.890;37.664;2023-07-24T12:28:55;98314.78;;;19.05;100.00
61900;BME280;47853;55.890;37.664;2023-07-24T12:31:21;98394.47;;;19.73;100.00
61900;BME280;47853;55.890;37.664;2023-07-24T12:33:46;98378.72;;;19.20;100.00
61900;BME280;47853;55.890;37.664;2023-07-24T12:36:12;98368.16;;;18.96;100.00
61900;BME280;47853;55.890;37.664;2023-07-24T12:38:37;98366.84;;;19.16;100.00
61900;BME280;47853;55.890;37.664;2023-07-24T12:41:03;98382.06;;;19.49;100.00
61900;BME280;47853;55.890;37.664;2023-07-24T12:43:28;98342.63;;;19.38;100.00
61900;BME280;47853;55.890;37.664;2023-07-24T12:45:53;98357.91;;;19.32;100.00
61900;BME280;47853;55.890;37.664;2023-07-24T12:48:19;98292.13;;;19.23;100.00
61900;BME280;47853;55.890;37.664;2023-07-24T12:50:44;98323.94;;;19.76;100.00
61900;BME280;47853;55.890;37.664;2023-07-24T12:53:10;98310.19;;;19.77;100.00
61900;BME280;47853;55.890;37.664;2023-07-24T12:55:37;98305.28;;;20.29;100.00
61900;BME280;47853;55.890;37.664;2023-07-24T12:58:03;98331.00;;;20.09;100.00
61900;BME280;47853;55.890;37.664;2023-07-24T13:03:41;98337.81;;;20.17;100.00
61900;BME280;47853;55.890;37.664;2023-07-24T13:06:15;98351.94;;;20.67;100.00
61900;BME280;47853;55.890;37.664;2023-07-24T13:08:40;98321.25;;;19.76;100.00
61900;BME280;47853;55.890;37.664;2023-07-24T13:11:08;98301.31;;;20.04;100.00
61900;BME280;47853;55.890;37.664;2023-07-24T13:13:33;98320.81;;;19.89;100.00
61900;BME280;47853;55.890;37.664;2023-07-24T13:15:59;98324.06;;;20.94;100.00
61900;BME280;47853;55.890;37.664;2023-07-24T13:18:24;98334.31;;;20.54;100.00
61900;BME280;47853;55.890;37.664;2023-07-24T13:20:49;98325.44;;;20.21;100.00
61900;BME280;47853;55.890;37.664;2023-07-24T13:23:15;98338.06;;;20.53;100.00
61900;BME280;47853;55.890;37.664;2023-07-24T13:25:40;98317.25;;;21.50;100.00
61900;BME280;47853;55.890;37.664;2023-07-24T13:28:06;98308.94;;;20.88;100.00
61900;BME280;47853;55.890;37.664;2023-07-24T13:30:31;98308.91;;;20.83;100.00
61900;BME280;47853;55.890;37.664;2023-07-24T13:32:56;98309.00;;;20.55;100.00
61900;BME280;47853;55.890;37.664;2023-07-24T13:35:31;98325.13;;;21.52;100.00
61900;BME280;47853;55.890;37.664;2023-07-24T13:37:56;98323.03;;;21.69;100.00
61900;BME280;47853;55.890;37.664;2023-07-24T13:40:22;98318.75;;;20.67;100.00
61900;BME280;47853;55.890;37.664;2023-07-24T13:42:47;98322.19;;;20.57;100.00
61900;BME280;47853;55.890;37.664;2023-07-24T13:45:12;98331.56;;;20.11;100.00
61900;BME280;47853;55.890;37.664;2023-07-24T13:47:38;98317.00;;;20.50;100.00
61900;BME280;47853;55.890;37.664;2023-07-24T13:50:03;98316.63;;;19.98;100.00
61900;BME280;47853;55.890;37.664;2023-07-24T13:52:29;98333.97;;;20.40;100.00
61900;BME280;47853;55.890;37.664;2023-07-24T13:54:55;98312.34;;;20.78;100.00
61900;BME280;47853;55.890;37.664;2023-07-24T13:57:20;98333.59;;;21.12;100.00
61900;BME280;47853;55.890;37.664;2023-07-24T13:59:46;98313.06;;;20.63;100.00
61900;BME280;47853;55.890;37.664;2023-07-24T14:02:11;98321.84;;;20.48;100.00
61900;BME280;47853;55.890;37.664;2023-07-24T14:04:36;98325.16;;;20.93;100.00
61900;BME280;47853;55.890;37.664;2023-07-24T14:07:02;98316.81;;;21.00;100.00
61900;BME280;47853;55.890;37.664;2023-07-24T14:09:27;98312.63;;;21.35;100.00
61900;BME280;47853;55.890;37.664;2023-07-24T14:11:52;98309.88;;;21.20;100.00
61900;BME280;47853;55.890;37.664;2023-07-24T14:14:18;98317.19;;;21.24;100.00
61900;BME280;47853;55.890;37.664;2023-07-24T14:16:46;98315.63;;;21.44;100.00
61900;BME280;47853;55.890;37.664;2023-07-24T14:19:11;98309.69;;;21.37;100.00
61900;BME280;47853;55.890;37.664;2023-07-24T14:21:36;98314.59;;;20.92;100.00
61900;BME280;47853;55.890;37.664;2023-07-24T14:24:02;98296.88;;;20.63;100.00
61900;BME280;47853;55.890;37.664;2023-07-24T14:26:27;98303.00;;;20.86;100.00
61900;BME280;47853;55.890;37.664;2023-07-24T14:28:53;98301.06;;;20.38;100.00
61900;BME280;47853;55.890;37.664;2023-07-24T14:31:18;98284.16;;;21.01;100.00
61900;BME280;47853;55.890;37.664;2023-07-24T14:33:43;98284.59;;;21.47;100.00
61900;BME280;47853;55.890;37.664;2023-07-24T14:36:09;98288.72;;;21.75;100.00
61900;BME280;47853;55.890;37.664;2023-07-24T14:38:34;98290.34;;;22.33;100.00
61900;BME280;47853;55.890;37.664;2023-07-24T14:41:00;98275.06;;;23.60;100.00
61900;BME280;47853;55.890;37.664;2023-07-24T14:43:25;98288.19;;;22.35;100.00
61900;BME280;47853;55.890;37.664;2023-07-24T14:45:50;98291.03;;;23.01;100.00
61900;BME280;47853;55.890;37.664;2023-07-24T14:48:16;98282.78;;;22.25;100.00
61900;BME280;47853;55.890;37.664;2023-07-24T14:50:41;98280.66;;;23.24;100.00
61900;BME280;47853;55.890;37.664;2023-07-24T14:53:06;98280.09;;;22.04;100.00
61900;BME280;47853;55.890;37.664;2023-07-24T14:55:32;98277.66;;;20.97;100.00
61900;BME280;47853;55.890;37.664;2023-07-24T14:57:57;98286.06;;;22.16;100.00
61900;BME280;47853;55.890;37.664;2023-07-24T15:00:22;98284.13;;;21.81;100.00
61900;BME280;47853;55.890;37.664;2023-07-24T15:02:48;98276.81;;;22.43;100.00
61900;BME280;47853;55.890;37.664;2023-07-24T15:05:13;98280.66;;;21.01;100.00
61900;BME280;47853;55.890;37.664;2023-07-24T15:07:38;98269.53;;;21.82;100.00
61900;BME280;47853;55.890;37.664;2023-07-24T15:10:04;98230.28;;;20.64;100.00
61900;BME280;47853;55.890;37.664;2023-07-24T15:12:30;98227.94;;;20.78;100.00
61900;BME280;47853;55.890;37.664;2023-07-24T15:14:55;98265.28;;;21.07;100.00
61900;BME280;47853;55.890;37.664;2023-07-24T15:17:21;98268.13;;;21.53;100.00
61900;BME280;47853;55.890;37.664;2023-07-24T15:19:46;98263.28;;;22.64;100.00
61900;BME280;47853;55.890;37.664;2023-07-24T15:22:11;98259.97;;;21.33;100.00
61900;BME280;47853;55.890;37.664;2023-07-24T15:24:36;98247.38;;;21.75;100.00
61900;BME280;47853;55.890;37.664;2023-07-24T15:27:09;98251.38;;;21.62;100.00